createdAt,value
2022-11-26T00:00:02.503Z,100350.53
2022-11-26T00:02:32.712Z,100355.66
2022-11-26T00:05:02.553Z,100347.72
2022-11-26T00:07:34.554Z,100347.84
2022-11-26T00:10:19.839Z,100346.91
2022-11-26T00:12:49.893Z,100360.28
2022-11-26T00:15:32.090Z,100363.34
2022-11-26T00:18:01.510Z,100370.81
2022-11-26T00:20:32.386Z,100383.13
2022-11-26T00:23:04.493Z,100381.66
2022-11-26T00:26:04.002Z,100388.81
2022-11-26T00:28:38.721Z,100376.63
2022-11-26T00:31:16.477Z,100388.47
2022-11-26T00:33:46.454Z,100386.19
2022-11-26T00:36:32.765Z,100382.13
2022-11-26T00:39:13.061Z,100388.72
2022-11-26T00:41:42.565Z,100377.06
2022-11-26T00:44:22.712Z,100382.50
2022-11-26T00:46:53.084Z,100391.13
2022-11-26T00:49:23.207Z,100385.88
2022-11-26T00:51:52.680Z,100385.47
2022-11-26T00:54:23.508Z,100386.38
2022-11-26T00:56:53.303Z,100382.28
2022-11-26T00:59:24.097Z,100376.63
2022-11-26T01:01:53.552Z,100377.19
2022-11-26T01:04:23.056Z,100384.56
2022-11-26T01:06:52.700Z,100388.81
2022-11-26T01:09:23.290Z,100389.19
2022-11-26T01:11:54.445Z,100393.41
2022-11-26T01:14:24.387Z,100395.06
2022-11-26T01:16:57.425Z,100394.09
2022-11-26T01:19:26.953Z,100390.78
2022-11-26T01:21:56.375Z,100390.75
2022-11-26T01:24:25.782Z,100391.97
2022-11-26T01:26:55.220Z,100386.53
2022-11-26T01:29:24.662Z,100390.91
2022-11-26T01:31:54.154Z,100395.69
2022-11-26T01:34:23.585Z,100400.00
2022-11-26T01:36:53.036Z,100402.28
2022-11-26T01:39:24.190Z,100400.72
2022-11-26T01:42:11.333Z,100400.84
2022-11-26T01:44:41.126Z,100405.31
2022-11-26T01:47:30.091Z,100401.19
2022-11-26T01:50:32.828Z,100405.22
2022-11-26T01:53:16.376Z,100408.69
2022-11-26T01:55:52.831Z,100409.00
2022-11-26T01:58:39.681Z,100414.16
2022-11-26T02:01:09.697Z,100418.44
2022-11-26T02:03:58.984Z,100409.81
2022-11-26T02:06:34.219Z,100415.09
2022-11-26T02:09:07.379Z,100416.91
2022-11-26T02:11:38.413Z,100413.31
2022-11-26T02:14:25.396Z,100417.22
2022-11-26T02:17:47.717Z,100420.13
2022-11-26T02:20:58.463Z,100415.03
2022-11-26T02:24:12.142Z,100416.75
2022-11-26T02:27:12.724Z,100412.25
2022-11-26T02:30:09.507Z,100422.47
2022-11-26T02:33:06.202Z,100413.31
2022-11-26T02:35:48.144Z,100419.59
2022-11-26T02:38:25.284Z,100427.44
2022-11-26T02:40:54.731Z,100426.97
2022-11-26T02:43:26.316Z,100425.34
2022-11-26T02:46:03.894Z,100431.13
2022-11-26T02:48:42.314Z,100432.03
2022-11-26T02:51:24.720Z,100432.13
2022-11-26T02:53:56.401Z,100436.38
2022-11-26T02:56:28.520Z,100439.19
2022-11-26T02:58:59.637Z,100439.97
2022-11-26T03:01:40.642Z,100448.47
2022-11-26T03:04:19.912Z,100451.97
2022-11-26T03:06:50.448Z,100450.75
2022-11-26T03:09:23.568Z,100450.69
2022-11-26T03:11:53.148Z,100453.03
2022-11-26T03:14:22.564Z,100450.38
2022-11-26T03:16:51.298Z,100455.69
2022-11-26T03:19:20.744Z,100460.06
2022-11-26T03:21:50.201Z,100455.06
2022-11-26T03:24:19.649Z,100456.19
2022-11-26T03:26:48.334Z,100456.91
2022-11-26T03:29:17.802Z,100463.91
2022-11-26T03:31:47.413Z,100459.69
2022-11-26T03:34:16.971Z,100460.66
2022-11-26T03:36:47.204Z,100457.69
2022-11-26T03:39:15.893Z,100456.94
2022-11-26T03:41:45.444Z,100464.63
2022-11-26T03:44:15.791Z,100469.06
2022-11-26T03:46:45.253Z,100473.19
2022-11-26T03:49:14.715Z,100466.16
2022-11-26T03:51:44.176Z,100462.97
2022-11-26T03:54:12.835Z,100462.16
2022-11-26T03:56:42.408Z,100462.84
2022-11-26T03:59:12.334Z,100463.66
2022-11-26T04:01:41.844Z,100464.03
2022-11-26T04:04:10.590Z,100460.44
2022-11-26T04:06:39.533Z,100456.91
2022-11-26T04:09:08.974Z,100463.84
2022-11-26T04:11:38.510Z,100470.81
2022-11-26T04:14:08.056Z,100474.69
2022-11-26T04:16:37.645Z,100473.28
2022-11-26T04:19:07.108Z,100482.19
2022-11-26T04:21:35.744Z,100484.06
2022-11-26T04:24:05.705Z,100492.94
2022-11-26T04:26:35.164Z,100494.03
2022-11-26T04:29:05.092Z,100495.59
2022-11-26T04:31:34.663Z,100501.81
2022-11-26T04:34:03.615Z,100509.78
2022-11-26T04:36:33.458Z,100517.88
2022-11-26T04:39:02.083Z,100513.47
2022-11-26T04:41:30.722Z,100510.13
2022-11-26T04:44:00.205Z,100521.34
2022-11-26T04:46:29.628Z,100510.56
2022-11-26T04:48:59.085Z,100517.78
2022-11-26T04:51:27.799Z,100507.91
2022-11-26T04:54:00.412Z,100519.44
2022-11-26T04:56:31.599Z,100532.03
2022-11-26T04:59:01.078Z,100532.72
2022-11-26T05:01:30.586Z,100530.19
2022-11-26T05:04:00.187Z,100535.06
2022-11-26T05:06:29.612Z,100531.84
2022-11-26T05:08:58.324Z,100534.84
2022-11-26T05:11:27.778Z,100538.31
2022-11-26T05:13:57.169Z,100553.09
2022-11-26T05:16:26.759Z,100546.84
2022-11-26T05:18:56.563Z,100552.16
2022-11-26T05:21:26.085Z,100541.81
2022-11-26T05:23:54.739Z,100549.50
2022-11-26T05:26:23.413Z,100561.81
2022-11-26T05:28:52.836Z,100562.78
2022-11-26T05:31:22.376Z,100562.22
2022-11-26T05:33:51.880Z,100561.13
2022-11-26T05:36:21.340Z,100562.69
2022-11-26T05:38:50.793Z,100566.88
2022-11-26T05:41:19.477Z,100574.66
2022-11-26T05:43:48.103Z,100573.69
2022-11-26T05:46:18.269Z,100571.03
2022-11-26T05:48:46.913Z,100572.00
2022-11-26T05:51:15.571Z,100577.94
2022-11-26T05:53:44.372Z,100591.31
2022-11-26T05:56:12.098Z,100587.09
2022-11-26T05:58:45.673Z,100584.06
2022-11-26T06:01:15.175Z,100578.72
2022-11-26T06:03:44.648Z,100580.44
2022-11-26T06:06:13.423Z,100587.53
2022-11-26T06:08:42.132Z,100586.78
2022-11-26T06:11:13.679Z,100587.00
2022-11-26T06:13:42.541Z,100590.25
2022-11-26T06:16:11.253Z,100593.53
2022-11-26T06:18:40.314Z,100593.88
2022-11-26T06:21:09.331Z,100594.56
2022-11-26T06:23:38.962Z,100600.84
2022-11-26T06:26:12.717Z,100592.78
2022-11-26T06:28:42.114Z,100597.22
2022-11-26T06:31:11.538Z,100600.78
2022-11-26T06:33:41.041Z,100602.75
2022-11-26T06:36:11.605Z,100602.34
2022-11-26T06:38:41.103Z,100597.16
2022-11-26T06:41:10.614Z,100607.66
2022-11-26T06:43:40.120Z,100612.31
2022-11-26T06:46:12.462Z,100609.56
2022-11-26T06:48:42.260Z,100612.22
2022-11-26T06:51:20.731Z,100609.41
2022-11-26T06:53:50.177Z,100606.56
2022-11-26T06:56:19.896Z,100611.88
2022-11-26T06:58:52.209Z,100619.66
2022-11-26T07:01:26.533Z,100621.69
2022-11-26T07:03:56.157Z,100632.19
2022-11-26T07:06:35.950Z,100632.34
2022-11-26T07:09:10.372Z,100633.78
2022-11-26T07:11:41.812Z,100642.19
2022-11-26T07:14:10.889Z,100635.75
2022-11-26T07:16:39.585Z,100643.47
2022-11-26T07:19:14.657Z,100638.00
2022-11-26T07:21:44.273Z,100644.91
2022-11-26T07:24:13.707Z,100637.81
2022-11-26T07:26:43.352Z,100639.84
2022-11-26T07:29:12.194Z,100647.91
2022-11-26T07:31:41.618Z,100650.28
2022-11-26T07:34:11.083Z,100650.22
2022-11-26T07:36:43.454Z,100651.69
2022-11-26T07:39:12.629Z,100643.88
2022-11-26T07:41:42.089Z,100656.19
2022-11-26T07:44:15.582Z,100657.38
2022-11-26T07:46:45.152Z,100661.25
2022-11-26T07:49:14.736Z,100656.56
2022-11-26T07:51:43.415Z,100665.81
2022-11-26T07:54:12.117Z,100657.78
2022-11-26T07:56:40.947Z,100656.06
2022-11-26T07:59:12.465Z,100660.31
2022-11-26T08:01:41.205Z,100661.19
2022-11-26T08:04:10.029Z,100665.91
2022-11-26T08:06:39.503Z,100662.06
2022-11-26T08:09:10.471Z,100664.16
2022-11-26T08:11:39.970Z,100658.53
2022-11-26T08:14:13.080Z,100668.56
2022-11-26T08:16:41.695Z,100666.06
2022-11-26T08:19:14.366Z,100672.16
2022-11-26T08:21:43.769Z,100677.06
2022-11-26T08:24:19.903Z,100676.94
2022-11-26T08:26:49.412Z,100674.41
2022-11-26T08:29:19.013Z,100680.13
2022-11-26T08:31:48.945Z,100692.47
2022-11-26T08:34:19.075Z,100690.09
2022-11-26T08:36:48.596Z,100690.91
2022-11-26T08:39:19.155Z,100691.53
2022-11-26T08:41:52.390Z,100693.78
2022-11-26T08:44:21.796Z,100695.41
2022-11-26T08:46:51.221Z,100700.59
2022-11-26T08:49:20.762Z,100699.13
2022-11-26T08:51:50.172Z,100703.47
2022-11-26T08:54:18.721Z,100702.72
2022-11-26T08:56:48.097Z,100704.41
2022-11-26T08:59:17.665Z,100706.16
2022-11-26T09:01:47.239Z,100713.03
2022-11-26T09:04:16.873Z,100708.44
2022-11-26T09:06:46.283Z,100704.81
2022-11-26T09:09:17.663Z,100709.44
2022-11-26T09:11:57.998Z,100708.50
2022-11-26T09:14:34.830Z,100716.75
2022-11-26T09:17:04.978Z,100718.50
2022-11-26T09:19:34.097Z,100719.38
2022-11-26T09:22:02.744Z,100718.00
2022-11-26T09:24:32.294Z,100728.13
2022-11-26T09:27:07.477Z,100716.31
2022-11-26T09:29:37.795Z,100715.56
2022-11-26T09:32:24.470Z,100727.44
2022-11-26T09:34:55.885Z,100723.31
2022-11-26T09:37:25.361Z,100723.59
2022-11-26T09:39:56.187Z,100727.25
2022-11-26T09:43:23.653Z,100726.03
2022-11-26T09:45:59.592Z,100742.34
2022-11-26T09:48:33.236Z,100745.72
2022-11-26T09:51:13.959Z,100744.19
2022-11-26T09:53:49.457Z,100747.19
2022-11-26T09:56:27.362Z,100750.03
2022-11-26T09:59:03.360Z,100752.72
2022-11-26T10:01:34.208Z,100748.75
2022-11-26T10:04:09.472Z,100752.72
2022-11-26T10:06:59.868Z,100756.50
2022-11-26T10:11:01.202Z,100745.59
2022-11-26T10:14:13.446Z,100741.44
2022-11-26T10:17:24.150Z,100732.44
2022-11-26T10:20:30.319Z,100733.47
2022-11-26T10:23:13.005Z,100736.53
2022-11-26T10:26:07.943Z,100727.63
2022-11-26T10:28:48.803Z,100733.34
2022-11-26T10:31:27.529Z,100736.78
2022-11-26T10:34:05.207Z,100743.00
2022-11-26T10:36:45.330Z,100737.81
2022-11-26T10:39:18.114Z,100733.28
2022-11-26T10:41:48.606Z,100741.03
2022-11-26T10:44:41.810Z,100738.78
2022-11-26T10:47:32.053Z,100735.16
2022-11-26T10:50:19.148Z,100727.06
2022-11-26T10:52:53.846Z,100736.03
2022-11-26T10:55:32.440Z,100737.22
2022-11-26T10:58:19.609Z,100730.44
2022-11-26T11:00:52.003Z,100729.97
2022-11-26T11:06:42.615Z,100730.22
2022-11-26T11:09:31.611Z,100729.50
2022-11-26T11:12:25.847Z,100737.28
2022-11-26T11:14:55.436Z,100729.16
2022-11-26T11:17:35.350Z,100731.88
2022-11-26T11:20:29.181Z,100724.41
2022-11-26T11:23:07.702Z,100728.28
2022-11-26T11:25:42.282Z,100729.59
2022-11-26T11:28:22.645Z,100719.25
2022-11-26T11:31:25.501Z,100721.28
2022-11-26T11:34:21.081Z,100724.50
2022-11-26T11:37:05.283Z,100713.75
2022-11-26T11:39:36.118Z,100718.16
2022-11-26T11:42:22.943Z,100703.78
2022-11-26T11:44:53.152Z,100713.25
2022-11-26T11:47:44.934Z,100724.44
2022-11-26T11:50:42.065Z,100717.00
2022-11-26T11:53:50.957Z,100720.16
2022-11-26T11:56:41.925Z,100729.56
2022-11-26T12:00:12.837Z,100720.94
2022-11-26T12:03:10.833Z,100717.38
2022-11-26T12:06:20.425Z,100715.91
2022-11-26T12:09:26.779Z,100720.16
2022-11-26T12:12:35.762Z,100715.44
2022-11-26T12:15:34.322Z,100715.00
2022-11-26T12:18:27.631Z,100712.84
2022-11-26T12:21:16.687Z,100707.50
2022-11-26T12:24:08.822Z,100708.66
2022-11-26T12:27:01.046Z,100713.56
2022-11-26T12:29:50.299Z,100712.91
2022-11-26T12:32:38.397Z,100717.34
2022-11-26T12:35:25.831Z,100718.25
2022-11-26T12:38:02.706Z,100725.97
2022-11-26T12:41:07.216Z,100717.66
2022-11-26T12:44:00.798Z,100709.94
2022-11-26T12:47:20.857Z,100721.03
2022-11-26T12:50:21.078Z,100716.84
2022-11-26T12:53:19.181Z,100715.59
2022-11-26T12:56:05.128Z,100713.75
2022-11-26T12:59:14.005Z,100712.22
2022-11-26T13:01:43.487Z,100710.41
2022-11-26T13:04:36.795Z,100700.25
2022-11-26T13:08:15.006Z,100702.88
2022-11-26T13:11:42.003Z,100705.56
2022-11-26T13:14:53.533Z,100701.13
2022-11-26T13:17:47.880Z,100705.69
2022-11-26T13:21:00.692Z,100710.97
2022-11-26T13:23:39.998Z,100708.63
2022-11-26T13:27:15.422Z,100715.19
2022-11-26T13:30:19.373Z,100719.59
2022-11-26T13:33:41.693Z,100722.09
2022-11-26T13:36:56.441Z,100723.41
2022-11-26T13:40:03.635Z,100733.63
2022-11-26T13:43:19.096Z,100732.25
2022-11-26T13:46:05.894Z,100730.75
2022-11-26T13:49:16.803Z,100731.53
2022-11-26T13:52:00.265Z,100736.28
2022-11-26T13:54:57.080Z,100730.66
2022-11-26T13:57:39.392Z,100730.00
2022-11-26T14:00:10.865Z,100730.22
2022-11-26T14:02:44.587Z,100729.56
2022-11-26T14:05:16.776Z,100729.97
2022-11-26T14:07:47.242Z,100729.38
2022-11-26T14:10:34.694Z,100728.38
2022-11-26T14:13:04.143Z,100730.66
2022-11-26T14:15:42.610Z,100732.81
2022-11-26T14:18:15.803Z,100733.41
2022-11-26T14:21:00.807Z,100731.53
2022-11-26T14:23:44.973Z,100731.00
2022-11-26T14:26:38.432Z,100732.88
2022-11-26T14:29:08.710Z,100733.13
2022-11-26T14:32:00.938Z,100731.81
2022-11-26T14:34:57.608Z,100736.50
2022-11-26T14:37:31.012Z,100740.34
2022-11-26T14:40:26.012Z,100740.03
2022-11-26T14:43:16.567Z,100730.00
2022-11-26T14:46:15.238Z,100739.09
2022-11-26T14:48:51.030Z,100739.25
2022-11-26T14:51:27.362Z,100743.16
2022-11-26T14:53:59.625Z,100744.03
2022-11-26T14:56:31.147Z,100750.09
2022-11-26T14:59:03.116Z,100750.28
2022-11-26T15:01:33.571Z,100747.00
2022-11-26T15:04:07.154Z,100752.19
2022-11-26T15:06:43.408Z,100750.94
2022-11-26T15:09:27.004Z,100759.78
2022-11-26T15:12:15.337Z,100763.69
2022-11-26T15:14:59.031Z,100758.84
2022-11-26T15:17:30.564Z,100763.41
2022-11-26T15:20:06.910Z,100766.28
2022-11-26T15:22:55.799Z,100765.81
2022-11-26T15:25:37.553Z,100768.16
2022-11-26T15:28:19.112Z,100769.38
2022-11-26T15:30:59.658Z,100770.22
2022-11-26T15:33:34.279Z,100778.56
2022-11-26T15:36:04.807Z,100770.88
2022-11-26T15:39:00.156Z,100769.25
2022-11-26T15:41:31.403Z,100768.00
2022-11-26T15:44:01.428Z,100765.81
2022-11-26T15:46:37.774Z,100767.19
2022-11-26T15:49:21.638Z,100759.97
2022-11-26T15:52:14.182Z,100773.09
2022-11-26T15:55:19.830Z,100776.16
2022-11-26T15:57:52.683Z,100775.66
2022-11-26T16:00:37.700Z,100770.97
2022-11-26T16:03:49.620Z,100761.72
2022-11-26T16:06:37.811Z,100763.16
2022-11-26T16:09:28.178Z,100766.69
2022-11-26T16:12:01.286Z,100759.91
2022-11-26T16:14:36.204Z,100752.41
2022-11-26T16:17:18.402Z,100758.72
2022-11-26T16:19:57.756Z,100757.66
2022-11-26T16:22:33.198Z,100759.00
2022-11-26T16:25:24.498Z,100760.50
2022-11-26T16:28:07.269Z,100759.41
2022-11-26T16:30:39.682Z,100764.13
2022-11-26T16:33:10.056Z,100758.28
2022-11-26T16:35:46.030Z,100766.34
2022-11-26T16:38:27.859Z,100771.84
2022-11-26T16:40:58.238Z,100761.56
2022-11-26T16:43:27.831Z,100759.00
2022-11-26T16:45:59.613Z,100761.94
2022-11-26T16:48:29.420Z,100760.19
2022-11-26T16:50:58.989Z,100776.34
2022-11-26T16:53:28.472Z,100774.69
2022-11-26T16:55:58.399Z,100767.88
2022-11-26T16:58:33.821Z,100773.19
2022-11-26T17:01:03.853Z,100775.66
2022-11-26T17:03:33.647Z,100770.38
2022-11-26T17:06:16.872Z,100771.78
2022-11-26T17:08:49.892Z,100777.13
2022-11-26T17:11:21.622Z,100775.03
2022-11-26T17:13:51.612Z,100772.56
2022-11-26T17:16:23.696Z,100770.53
2022-11-26T17:18:53.237Z,100768.22
2022-11-26T17:21:22.789Z,100779.91
2022-11-26T17:23:52.209Z,100771.53
2022-11-26T17:26:24.377Z,100773.53
2022-11-26T17:28:54.017Z,100773.38
2022-11-26T17:31:23.528Z,100781.25
2022-11-26T17:33:53.371Z,100782.19
2022-11-26T17:36:24.130Z,100782.16
2022-11-26T17:38:53.792Z,100784.19
2022-11-26T17:41:23.359Z,100784.00
2022-11-26T17:43:52.971Z,100783.25
2022-11-26T17:46:23.434Z,100785.41
2022-11-26T17:48:58.262Z,100789.78
2022-11-26T17:51:32.131Z,100799.56
2022-11-26T17:54:01.712Z,100792.88
2022-11-26T17:56:31.714Z,100798.38
2022-11-26T17:59:03.198Z,100805.28
2022-11-26T18:01:32.887Z,100799.06
2022-11-26T18:04:02.613Z,100801.16
2022-11-26T18:07:13.467Z,100799.06
2022-11-26T18:09:43.763Z,100806.03
2022-11-26T18:12:25.734Z,100802.13
2022-11-26T18:14:57.651Z,100801.19
2022-11-26T18:17:28.131Z,100801.47
2022-11-26T18:19:57.834Z,100805.00
2022-11-26T18:22:29.300Z,100804.88
2022-11-26T18:24:59.750Z,100808.34
2022-11-26T18:27:31.232Z,100804.50
2022-11-26T18:30:02.974Z,100795.66
2022-11-26T18:32:32.646Z,100800.16
2022-11-26T18:35:03.388Z,100800.50
2022-11-26T18:37:37.420Z,100803.31
2022-11-26T18:40:11.732Z,100796.00
2022-11-26T18:42:42.199Z,100806.97
2022-11-26T18:45:15.375Z,100790.28
2022-11-26T18:47:45.322Z,100802.50
2022-11-26T18:50:17.986Z,100804.38
2022-11-26T18:52:47.549Z,100797.94
2022-11-26T18:55:16.918Z,100799.84
2022-11-26T18:57:46.549Z,100808.03
2022-11-26T19:00:17.709Z,100807.41
2022-11-26T19:02:45.732Z,100816.91
2022-11-26T19:05:16.315Z,100813.53
2022-11-26T19:07:46.848Z,100819.72
2022-11-26T19:10:17.451Z,100825.56
2022-11-26T19:12:49.304Z,100826.47
2022-11-26T19:15:19.838Z,100816.00
2022-11-26T19:17:50.260Z,100821.38
2022-11-26T19:20:19.872Z,100820.53
2022-11-26T19:22:50.431Z,100817.84
2022-11-26T19:25:21.135Z,100821.22
2022-11-26T19:27:51.569Z,100820.91
2022-11-26T19:30:24.569Z,100833.63
2022-11-26T19:32:55.074Z,100841.56
2022-11-26T19:35:25.755Z,100833.56
2022-11-26T19:37:55.442Z,100839.69
2022-11-26T19:40:26.032Z,100832.78
2022-11-26T19:42:56.443Z,100831.88
2022-11-26T19:45:24.933Z,100825.66
2022-11-26T19:47:53.028Z,100824.72
2022-11-26T19:50:22.601Z,100826.56
2022-11-26T19:52:53.999Z,100832.84
2022-11-26T19:55:21.813Z,100833.84
2022-11-26T19:57:52.328Z,100829.50
2022-11-26T20:00:20.501Z,100825.94
2022-11-26T20:02:50.171Z,100831.72
2022-11-26T20:05:19.782Z,100837.88
2022-11-26T20:07:49.641Z,100836.06
2022-11-26T20:10:17.662Z,100835.16
2022-11-26T20:12:45.491Z,100844.22
2022-11-26T20:15:13.330Z,100840.66
2022-11-26T20:17:43.032Z,100841.34
2022-11-26T20:20:11.398Z,100836.06
2022-11-26T20:22:41.003Z,100841.53
2022-11-26T20:25:09.492Z,100836.28
2022-11-26T20:27:40.139Z,100842.31
2022-11-26T20:30:12.299Z,100844.03
2022-11-26T20:32:40.195Z,100848.38
2022-11-26T20:35:11.251Z,100841.34
2022-11-26T20:37:40.831Z,100841.78
2022-11-26T20:40:10.425Z,100839.41
2022-11-26T20:42:40.985Z,100837.28
2022-11-26T20:45:09.234Z,100833.03
2022-11-26T20:47:40.236Z,100833.47
2022-11-26T20:50:11.051Z,100826.19
2022-11-26T20:52:38.931Z,100833.19
2022-11-26T20:55:09.977Z,100834.03
2022-11-26T20:57:40.473Z,100834.94
2022-11-26T21:00:17.072Z,100837.97
2022-11-26T21:02:48.742Z,100831.88
2022-11-26T21:05:19.624Z,100838.34
2022-11-26T21:07:51.287Z,100844.31
2022-11-26T21:10:25.224Z,100835.63
2022-11-26T21:12:53.050Z,100839.06
2022-11-26T21:15:23.223Z,100840.88
2022-11-26T21:17:53.723Z,100838.88
2022-11-26T21:20:25.210Z,100835.13
2022-11-26T21:22:55.784Z,100834.22
2022-11-26T21:25:26.589Z,100825.56
2022-11-26T21:27:56.177Z,100837.81
2022-11-26T21:30:24.166Z,100834.41
2022-11-26T21:32:52.042Z,100839.00
2022-11-26T21:35:22.531Z,100833.66
2022-11-26T21:37:53.835Z,100834.47
2022-11-26T21:40:23.795Z,100838.06
2022-11-26T21:42:53.812Z,100845.78
2022-11-26T21:45:22.267Z,100843.13
2022-11-26T21:47:52.999Z,100837.91
2022-11-26T21:50:24.351Z,100844.28
2022-11-26T21:52:54.926Z,100849.31
2022-11-26T21:55:25.388Z,100843.78
2022-11-26T21:57:55.858Z,100850.81
2022-11-26T22:00:23.629Z,100850.81
2022-11-26T22:02:53.331Z,100848.94
2022-11-26T22:05:23.009Z,100850.63
2022-11-26T22:07:52.831Z,100864.13
2022-11-26T22:10:22.451Z,100861.50
2022-11-26T22:12:51.999Z,100865.78
2022-11-26T22:15:21.618Z,100861.34
2022-11-26T22:17:51.185Z,100866.44
2022-11-26T22:20:20.740Z,100856.91
2022-11-26T22:22:51.175Z,100856.16
2022-11-26T22:25:18.954Z,100858.19
2022-11-26T22:27:48.535Z,100852.78
2022-11-26T22:30:16.975Z,100864.22
2022-11-26T22:32:47.432Z,100864.13
2022-11-26T22:35:15.245Z,100861.25
2022-11-26T22:37:44.848Z,100860.38
2022-11-26T22:40:15.466Z,100858.69
2022-11-26T22:42:43.218Z,100858.66
2022-11-26T22:45:14.588Z,100857.13
2022-11-26T22:47:42.364Z,100853.22
2022-11-26T22:50:12.918Z,100852.06
2022-11-26T22:52:43.579Z,100851.28
2022-11-26T22:55:13.191Z,100847.31
2022-11-26T22:57:41.208Z,100840.38
2022-11-26T23:00:52.833Z,100837.66
2022-11-26T23:03:25.610Z,100845.50
2022-11-26T23:05:56.011Z,100845.56
2022-11-26T23:08:23.869Z,100848.94
2022-11-26T23:10:54.297Z,100843.84
2022-11-26T23:13:23.941Z,100845.50
2022-11-26T23:15:53.550Z,100843.56
2022-11-26T23:18:23.355Z,100845.38
2022-11-26T23:20:51.185Z,100848.94
2022-11-26T23:23:19.828Z,100847.22
2022-11-26T23:25:47.642Z,100839.66
2022-11-26T23:28:15.443Z,100837.19
2022-11-26T23:30:45.933Z,100838.25
2022-11-26T23:33:16.411Z,100844.16
2022-11-26T23:35:46.003Z,100843.63
2022-11-26T23:38:13.823Z,100836.44
2022-11-26T23:40:44.283Z,100843.06
2022-11-26T23:43:15.627Z,100837.25
2022-11-26T23:45:45.229Z,100834.78
2022-11-26T23:48:14.995Z,100841.94
2022-11-26T23:50:44.747Z,100841.28
2022-11-26T23:53:12.552Z,100841.13
2022-11-26T23:55:42.152Z,100838.47
2022-11-26T23:58:09.911Z,100834.78
